»·PEaware :: DFGCW KAUN-KBOK

DFGCW :: KAUN-KBOK

FLIGHT INFORMATION

Flight Status: Arrived
Operator: Unknown
More flights by this operator :: More flights under this callsign
Pilot: Klaus A. (15485)
Aircraft: PILATUS PC-12 EAGLE
(PC12)
More flights by this aircraft type
Origin: KAUN Auburn Mun
United States
Destination: KBOK Brookings State
United States
More flights between these airports :: More routes between these airports
Route: RBL ENVIE CEC
File this flight plan on PilotEdge
Remarks: PBN / D2 DOF / 181009 REG / DFGCW EET / KZSE0054 PER / B RMK / TCAS SIMBRIEF
Altitude:
(Current/Filed)
24,000ft
Speed:
(Current/Filed)
278kts
Departed: 09-Oct-18 08:23 AM
Arrived: 09-Oct-18 09:43 AM
Distance/Time
Traveled:
238nm/1:19
Distance/Time
To Go:
Arrived

Flight Plot

Page will automatically refresh every two minutes.

Flight plan parsing failed; only flown route is shown


Map Options




Map Legend


Flown Route
Filed Route
Departure Airport
Arrival Airport
Navaid (VOR, NDB)
Fix

Horizontal Profiles

Position Reports

Time Latitude Longitude Heading Altitude Ground
Speed
09-Oct-18 08:11 38.953984 -121.080343 174 1542ft 0kts
09-Oct-18 08:12 38.953984 -121.080343 174 1542ft 0kts
09-Oct-18 08:13 38.953984 -121.080343 174 1542ft 0kts
09-Oct-18 08:14 38.953984 -121.080343 174 1542ft 0kts
09-Oct-18 08:15 38.953984 -121.080343 174 1542ft 0kts
09-Oct-18 08:16 38.953984 -121.080343 174 1542ft 0kts
09-Oct-18 08:17 38.953984 -121.080343 174 1542ft 0kts
09-Oct-18 08:18 38.953984 -121.080343 174 1542ft 0kts
09-Oct-18 08:19 38.953964 -121.080340 170 1542ft 0kts
09-Oct-18 08:20 38.954215 -121.082379 330 1541ft 10kts
09-Oct-18 08:21 38.953897 -121.087345 256 1542ft 10kts
09-Oct-18 08:22 38.953906 -121.087673 311 1542ft 0kts
09-Oct-18 08:23 38.953906 -121.087673 311 1542ft 0kts
09-Oct-18 08:24 38.953979 -121.087784 309 1542ft 3kts
09-Oct-18 08:25 38.955180 -121.069440 90 2030ft 117kts
09-Oct-18 08:26 38.980195 -121.039518 347 3965ft 161kts
09-Oct-18 08:27 39.014162 -121.077778 320 6283ft 162kts
09-Oct-18 08:28 39.041146 -121.121128 293 8478ft 161kts
09-Oct-18 08:29 39.046461 -121.178760 288 10332ft 164kts
09-Oct-18 08:30 39.054330 -121.236397 288 12091ft 164kts
09-Oct-18 08:31 39.061934 -121.294118 289 13782ft 165kts
09-Oct-18 08:32 39.069676 -121.352518 289 15303ft 167kts
09-Oct-18 08:33 39.077407 -121.410792 288 16718ft 166kts
09-Oct-18 08:34 39.085193 -121.469693 288 17990ft 167kts
09-Oct-18 08:35 39.092909 -121.528972 288 19135ft 169kts
09-Oct-18 08:36 39.101755 -121.597278 289 20324ft 171kts
09-Oct-18 08:37 39.108258 -121.647770 289 21156ft 172kts
09-Oct-18 08:38 39.115968 -121.707910 289 22074ft 174kts
09-Oct-18 08:39 39.126821 -121.764026 329 22834ft 163kts
09-Oct-18 08:40 39.169252 -121.782883 341 23696ft 162kts
09-Oct-18 08:41 39.215917 -121.799006 342 23929ft 190kts
09-Oct-18 08:42 39.270259 -121.816800 342 23923ft 209kts
09-Oct-18 08:43 39.327522 -121.835903 337 23917ft 215kts
09-Oct-18 08:44 39.383407 -121.864207 337 23920ft 217kts
09-Oct-18 08:45 39.439830 -121.893189 336 23919ft 218kts
09-Oct-18 08:46 39.496158 -121.922238 336 23918ft 219kts
09-Oct-18 08:47 39.552656 -121.951430 336 23917ft 219kts
09-Oct-18 08:48 39.609123 -121.980659 336 23907ft 219kts
09-Oct-18 08:49 39.665478 -122.009881 336 23906ft 218kts
09-Oct-18 08:50 39.721606 -122.039037 336 23905ft 218kts
09-Oct-18 08:51 39.777733 -122.068234 336 23904ft 217kts
09-Oct-18 08:52 39.833465 -122.097290 336 23903ft 215kts
09-Oct-18 08:53 39.888765 -122.126164 336 23903ft 214kts
09-Oct-18 08:54 39.943943 -122.155025 336 23902ft 214kts
09-Oct-18 08:55 39.999037 -122.183892 336 23901ft 213kts
09-Oct-18 08:56 40.054094 -122.212789 336 23900ft 213kts
09-Oct-18 08:57 40.105256 -122.246515 316 23910ft 214kts
09-Oct-18 08:58 40.127952 -122.321027 305 23911ft 221kts
09-Oct-18 08:59 40.155428 -122.393513 301 23910ft 224kts
09-Oct-18 09:00 40.182253 -122.466750 301 23909ft 224kts
09-Oct-18 09:01 40.226517 -122.517941 326 23906ft 217kts
09-Oct-18 09:02 40.287675 -122.562140 328 23905ft 216kts
09-Oct-18 09:03 40.333151 -122.589479 334 23907ft 216kts
09-Oct-18 09:04 40.388069 -122.621244 334 23888ft 216kts
09-Oct-18 09:05 40.442014 -122.654003 333 23891ft 216kts
09-Oct-18 09:06 40.496405 -122.687279 333 23892ft 216kts
09-Oct-18 09:07 40.551038 -122.720782 333 23891ft 216kts
09-Oct-18 09:08 40.605280 -122.754102 333 23887ft 217kts
09-Oct-18 09:09 40.659884 -122.787714 333 23889ft 218kts
09-Oct-18 09:10 40.714730 -122.821534 333 23887ft 217kts
09-Oct-18 09:11 40.769466 -122.855343 333 23888ft 216kts
09-Oct-18 09:12 40.823848 -122.889000 333 23886ft 216kts
09-Oct-18 09:13 40.877883 -122.922502 333 23885ft 214kts
09-Oct-18 09:14 40.931609 -122.955870 333 23883ft 213kts
09-Oct-18 09:15 40.985008 -122.989097 333 23819ft 217kts
09-Oct-18 09:16 41.041009 -123.024005 333 22796ft 226kts
09-Oct-18 09:17 41.098190 -123.059723 333 21771ft 229kts
09-Oct-18 09:18 41.153991 -123.094638 333 20820ft 230kts
09-Oct-18 09:19 41.211248 -123.130536 333 19848ft 232kts
09-Oct-18 09:20 41.269577 -123.167141 333 18868ft 233kts
09-Oct-18 09:21 41.327785 -123.203900 331 17876ft 232kts
09-Oct-18 09:22 41.365066 -123.272284 301 16881ft 236kts
09-Oct-18 09:23 41.396987 -123.348744 304 16010ft 232kts
09-Oct-18 09:24 41.428597 -123.421685 304 15991ft 227kts
09-Oct-18 09:25 41.460081 -123.494267 304 15999ft 226kts
09-Oct-18 09:26 41.489685 -123.562664 304 15999ft 226kts
09-Oct-18 09:27 41.520271 -123.633393 300 16004ft 251kts
09-Oct-18 09:28 41.556102 -123.716672 299 15051ft 260kts
09-Oct-18 09:29 41.592017 -123.800301 299 14051ft 259kts
09-Oct-18 09:30 41.633629 -123.897478 299 12887ft 258kts
09-Oct-18 09:31 41.671183 -123.956737 331 12012ft 245kts
09-Oct-18 09:32 41.728054 -123.997926 328 10691ft 225kts
09-Oct-18 09:33 41.779872 -124.041367 327 9387ft 217kts
09-Oct-18 09:34 41.830493 -124.083931 327 8084ft 213kts
09-Oct-18 09:35 41.880398 -124.125973 327 6784ft 211kts
09-Oct-18 09:36 41.929693 -124.167918 324 5476ft 209kts
09-Oct-18 09:37 41.974604 -124.216240 322 4274ft 205kts
09-Oct-18 09:38 42.023308 -124.253812 334 3112ft 201kts
09-Oct-18 09:39 42.069973 -124.290705 313 2371ft 181kts
09-Oct-18 09:40 42.090451 -124.335368 253 2109ft 120kts
09-Oct-18 09:41 42.066861 -124.341949 135 1438ft 107kts
09-Oct-18 09:42 42.048336 -124.310429 122 1486ft 112kts
09-Oct-18 09:43 42.036818 -124.273246 62 1534ft 118kts
09-Oct-18 09:44 42.057561 -124.273665 314 905ft 105kts
09-Oct-18 09:45 42.075844 -124.291817 325 464ft 9kts
09-Oct-18 09:46 42.076725 -124.291928 141 464ft 0kts
09-Oct-18 09:47 42.076725 -124.291928 141 464ft 0kts
09-Oct-18 09:48 42.076669 -124.291178 107 464ft 5kts
09-Oct-18 09:49 42.076385 -124.290800 146 464ft 0kts
09-Oct-18 09:50 42.076386 -124.290800 146 464ft 0kts
09-Oct-18 09:51 42.076386 -124.290800 146 464ft 0kts
09-Oct-18 09:52 42.076386 -124.290800 146 464ft 0kts

Navigation Log

Ident Type
Flight plan parsing failed, navigation log unavailable